Time;durP1;ratioP1;P1;durP2;ratioP2;P2;SDS_P1;SDS_P2;PMS_P1;PMS_P2;Temp;Humidity;BMP_temperature;BMP_pressure;BME280_temperature;BME280_humidity;BME280_pressure;Samples;Min_cycle;Max_cycle;Signal;HPM_P1;HPM_P2
2022/01/14 03:59:47;;;;;;;34.73;20.08;;;;;;;2.33;91.10;100006.33;4542958;77;22351;-91
2022/01/14 04:05:49;;;;;;;32.33;18.65;;;;;;;2.29;91.10;99997.19;4501738;78;21070;-91
2022/01/14 04:11:51;;;;;;;42.10;21.30;;;;;;;2.29;91.10;99992.59;4497332;78;21044;-90
2022/01/14 04:17:52;;;;;;;38.02;20.37;;;;;;;2.25;91.13;99997.54;4495195;78;21533;-90
2022/01/14 04:23:54;;;;;;;38.08;19.62;;;;;;;2.27;91.18;99992.08;4495792;77;21023;-91
2022/01/14 04:29:55;;;;;;;40.73;21.87;;;;;;;2.29;91.16;99986.37;4492366;78;21032;-91
2022/01/14 04:35:59;;;;;;;37.05;19.67;;;;;;;2.27;91.08;99969.12;4498093;77;21025;-91
2022/01/14 04:42:01;;;;;;;41.55;19.82;;;;;;;2.23;91.14;99959.20;4494115;77;21655;-89
2022/01/14 04:48:06;;;;;;;41.23;21.62;;;;;;;2.24;91.19;99968.94;4471414;76;69271;-94
2022/01/14 04:54:10;;;;;;;44.08;22.07;;;;;;;2.25;91.22;99969.17;4421256;78;21655;-92
2022/01/14 05:00:18;;;;;;;43.13;21.68;;;;;;;2.26;91.06;99954.55;4332624;80;21030;-90
2022/01/14 05:06:19;;;;;;;42.90;22.13;;;;;;;2.26;91.09;99945.10;4329540;79;21041;-89
2022/01/14 05:12:20;;;;;;;44.55;24.47;;;;;;;2.22;91.18;99944.91;4331169;80;21043;-90
2022/01/14 05:18:23;;;;;;;46.13;23.55;;;;;;;2.22;91.15;99928.71;4321935;81;21026;-91
2022/01/14 05:24:24;;;;;;;42.83;21.90;;;;;;;2.22;91.16;99942.22;4320414;81;21050;-90
2022/01/14 05:30:26;;;;;;;49.05;24.60;;;;;;;2.22;91.16;99935.46;4320620;81;21023;-93
2022/01/14 05:36:28;;;;;;;49.40;25.35;;;;;;;2.21;91.01;99933.06;4323150;81;21023;-91
2022/01/14 05:42:33;;;;;;;49.80;25.15;;;;;;;2.14;91.15;99929.39;4319841;81;21101;-92
2022/01/14 05:48:34;;;;;;;45.73;25.12;;;;;;;2.13;91.16;99908.86;4330768;80;21044;-91
2022/01/14 05:54:35;;;;;;;50.17;24.57;;;;;;;2.12;91.21;99907.27;4322223;81;21579;-90
2022/01/14 06:00:37;;;;;;;47.33;24.63;;;;;;;2.08;91.27;99899.52;4321354;80;83071;-91
2022/01/14 06:06:39;;;;;;;47.45;23.85;;;;;;;2.06;91.31;99889.55;4337980;82;21034;-92
2022/01/14 06:12:40;;;;;;;49.60;24.87;;;;;;;2.05;91.35;99885.80;4337566;81;21097;-91
2022/01/14 06:18:42;;;;;;;46.15;24.18;;;;;;;2.06;91.39;99869.84;4335960;81;21045;-91
2022/01/14 06:24:45;;;;;;;40.17;23.18;;;;;;;2.04;91.42;99863.39;4336769;80;21090;-91
2022/01/14 06:30:47;;;;;;;46.77;23.12;;;;;;;2.05;91.42;99873.65;4335582;80;21326;-91
2022/01/14 06:36:48;;;;;;;38.90;18.98;;;;;;;2.03;91.44;99874.48;4339762;80;21081;-91
2022/01/14 06:42:50;;;;;;;41.00;21.37;;;;;;;2.05;91.49;99869.59;4337893;80;21011;-91
2022/01/14 06:48:52;;;;;;;44.03;21.40;;;;;;;2.07;91.56;99866.84;4341170;81;21001;-92
2022/01/14 06:54:54;;;;;;;43.08;21.80;;;;;;;2.05;91.53;99901.44;4338306;80;21385;-90
2022/01/14 07:00:55;;;;;;;37.17;20.80;;;;;;;2.09;91.54;99902.46;4329859;82;21549;-91
2022/01/14 07:06:57;;;;;;;42.53;21.55;;;;;;;2.10;91.57;99892.47;4312616;82;21319;-91
2022/01/14 07:13:01;;;;;;;40.88;22.58;;;;;;;2.08;91.46;99891.42;4289538;81;21049;-90
2022/01/14 07:19:04;;;;;;;41.15;20.32;;;;;;;2.07;91.56;99893.84;4326787;82;21062;-91
2022/01/14 07:25:08;;;;;;;38.38;20.75;;;;;;;2.06;91.52;99880.10;4329088;81;21442;-92
2022/01/14 07:31:10;;;;;;;43.52;21.50;;;;;;;2.03;91.56;99890.69;4327139;81;21022;-91
2022/01/14 07:37:11;;;;;;;43.80;21.93;;;;;;;2.02;91.60;99900.69;4329461;81;21042;-92
2022/01/14 07:43:13;;;;;;;53.58;24.52;;;;;;;1.98;91.61;99901.03;4327185;81;21102;-91
2022/01/14 07:49:15;;;;;;;50.12;23.52;;;;;;;1.94;91.67;99915.43;4317834;81;21030;-91
2022/01/14 07:55:16;;;;;;;44.35;22.65;;;;;;;1.90;91.84;99941.41;4329284;81;21163;-93
2022/01/14 08:01:18;;;;;;;53.17;27.62;;;;;;;1.89;91.90;99931.70;4334876;80;21060;-92
2022/01/14 08:07:22;;;;;;;52.38;26.68;;;;;;;1.89;92.01;99898.77;4336748;82;21038;-91
2022/01/14 08:13:27;;;;;;;50.45;24.85;;;;;;;1.92;92.03;99910.33;4339365;80;21038;-92
2022/01/14 08:19:33;;;;;;;47.62;24.82;;;;;;;1.95;92.06;99907.57;4336108;81;21035;-90
2022/01/14 08:25:33;;;;;;;49.20;24.37;;;;;;;1.98;92.04;99892.94;4327891;80;21013;-91
2022/01/14 08:31:34;;;;;;;48.50;26.57;;;;;;;1.98;91.99;99886.72;4329044;80;21084;-94
2022/01/14 08:37:39;;;;;;;54.55;25.20;;;;;;;2.01;91.98;99888.29;4328836;80;21210;-91
2022/01/14 08:43:42;;;;;;;50.85;25.12;;;;;;;2.05;91.95;99880.40;4302887;81;22326;-92
2022/01/14 08:49:46;;;;;;;46.23;20.92;;;;;;;2.06;91.94;99843.64;4335814;81;21560;-92
2022/01/14 08:55:47;;;;;;;43.78;22.77;;;;;;;2.11;91.77;99829.23;4310094;80;21082;-91
2022/01/14 09:01:50;;;;;;;42.83;21.05;;;;;;;2.14;91.66;99837.55;4329596;81;21059;-93
2022/01/14 09:07:52;;;;;;;36.80;16.60;;;;;;;2.14;91.76;99828.09;4328923;81;21042;-91
2022/01/14 09:13:53;;;;;;;32.08;17.32;;;;;;;2.17;91.78;99833.44;4330711;81;21006;-91
2022/01/14 09:19:56;;;;;;;37.53;17.55;;;;;;;2.20;91.87;99839.59;4328591;81;21069;-91
2022/01/14 09:25:57;;;;;;;36.10;18.27;;;;;;;2.23;91.76;99849.25;4328909;81;21049;-90
2022/01/14 09:31:59;;;;;;;39.45;18.77;;;;;;;2.25;91.76;99830.85;4327829;81;21083;-92
2022/01/14 09:38:00;;;;;;;37.48;19.90;;;;;;;2.27;91.63;99811.64;4330001;81;21640;-91
2022/01/14 09:44:05;;;;;;;37.45;18.60;;;;;;;2.28;91.73;99814.04;4325941;82;21010;-91
2022/01/14 09:50:09;;;;;;;36.85;19.05;;;;;;;2.31;91.72;99812.09;4323852;81;21058;-91
2022/01/14 09:56:18;;;;;;;40.40;19.05;;;;;;;2.34;91.75;99802.56;4328567;81;21014;-90
2022/01/14 10:02:39;;;;;;;41.40;19.82;;;;;;;2.34;91.75;99793.11;4326138;81;21040;-92
2022/01/14 10:08:45;;;;;;;41.33;20.02;;;;;;;2.36;91.63;99783.62;4328554;82;21668;-91
2022/01/14 10:15:03;;;;;;;48.85;22.13;;;;;;;2.39;91.63;99757.34;4325828;81;21070;-92
2022/01/14 10:21:11;;;;;;;50.35;22.20;;;;;;;2.42;91.40;99767.55;4326690;81;21006;-91
2022/01/14 10:27:13;;;;;;;42.15;19.45;;;;;;;2.44;91.49;99742.37;4327950;81;21118;-92
2022/01/14 10:33:24;;;;;;;39.13;18.55;;;;;;;2.52;91.19;99730.82;4328106;81;21061;-93
2022/01/14 10:39:27;;;;;;;38.83;19.75;;;;;;;2.55;91.14;99715.92;4328437;81;21054;-91
2022/01/14 10:45:30;;;;;;;38.98;19.20;;;;;;;2.59;91.02;99719.05;4331649;81;21034;-95
2022/01/14 10:51:32;;;;;;;32.23;18.45;;;;;;;2.64;90.79;99713.53;4325727;81;21081;-92
2022/01/14 10:57:33;;;;;;;32.73;17.40;;;;;;;2.69;90.83;99714.75;4328095;81;21070;-91
2022/01/14 11:03:40;;;;;;;35.73;17.92;;;;;;;2.76;90.43;99708.92;4328584;82;21613;-90
2022/01/14 11:09:42;;;;;;;34.53;17.82;;;;;;;2.80;90.82;99690.42;4324921;81;21044;-91
2022/01/14 11:15:44;;;;;;;28.35;15.30;;;;;;;2.90;90.49;99658.28;4326952;82;20983;-93
2022/01/14 11:28:16;;;;;;;31.27;15.78;;;;;;;3.09;90.53;99641.30;4327940;81;21034;-92
2022/01/14 11:34:42;;;;;;;31.93;15.68;;;;;;;3.18;90.68;99635.37;4338394;81;66287;-91
2022/01/14 11:40:50;;;;;;;28.45;15.13;;;;;;;3.28;90.76;99629.70;4396807;81;21006;-94
2022/01/14 11:47:00;;;;;;;34.85;15.70;;;;;;;3.40;90.60;99633.97;4394066;79;21006;-92
2022/01/14 11:53:02;;;;;;;34.83;16.10;;;;;;;3.50;90.52;99613.95;4393482;79;21053;-91
2022/01/14 11:59:24;;;;;;;35.00;15.78;;;;;;;3.57;90.50;99610.23;4411260;79;21045;-92
2022/01/14 12:05:30;;;;;;;30.43;14.73;;;;;;;3.65;90.61;99609.47;4426787;79;21136;-91
2022/01/14 12:11:32;;;;;;;28.52;14.45;;;;;;;3.72;90.29;99607.89;4425044;79;21033;-92
2022/01/14 12:17:38;;;;;;;29.55;14.68;;;;;;;3.76;90.00;99615.61;4424884;79;21026;-90
2022/01/14 12:23:41;;;;;;;27.85;14.10;;;;;;;3.79;89.76;99596.02;4406155;79;21061;-91
2022/01/14 12:29:49;;;;;;;24.70;14.00;;;;;;;3.77;89.89;99599.63;4426360;79;21038;-94
2022/01/14 12:35:51;;;;;;;26.42;15.10;;;;;;;3.76;89.74;99562.03;4427940;80;21101;-92
2022/01/14 12:41:56;;;;;;;26.73;13.93;;;;;;;3.73;89.93;99587.81;4427384;79;21061;-92
2022/01/14 12:48:40;;;;;;;;;;;;;;;3.76;89.90;99583.13;4431211;80;21018;-93
2022/01/14 12:54:47;;;;;;;29.30;14.18;;;;;;;3.75;89.97;99586.14;4428357;79;20833;-92
2022/01/14 13:00:48;;;;;;;24.18;12.98;;;;;;;3.77;89.83;99577.16;4445762;78;21042;-90
2022/01/14 13:06:56;;;;;;;32.60;15.95;;;;;;;3.80;89.87;99580.04;4453131;78;21060;-91
2022/01/14 13:12:58;;;;;;;27.48;14.43;;;;;;;3.88;89.69;99598.77;4455819;80;21073;-90
2022/01/14 13:18:59;;;;;;;31.25;16.27;;;;;;;3.89;89.41;99605.77;4454083;80;21099;-91
2022/01/14 13:25:14;;;;;;;33.30;16.37;;;;;;;3.90;89.28;99612.22;4455873;78;21049;-91
2022/01/14 13:31:16;;;;;;;33.83;17.35;;;;;;;3.88;89.41;99631.27;4429072;78;21041;-91
2022/01/14 13:37:22;;;;;;;34.18;16.37;;;;;;;3.84;89.29;99635.16;4455301;80;21045;-92
2022/01/14 13:43:38;;;;;;;32.98;17.92;;;;;;;3.83;89.15;99620.58;4424150;78;21591;-94
2022/01/14 13:49:40;;;;;;;35.52;18.50;;;;;;;3.80;89.17;99623.91;4453026;80;21555;-93
2022/01/14 13:55:50;;;;;;;30.92;17.60;;;;;;;3.77;89.15;99629.42;4454816;80;21072;-91
2022/01/14 14:01:58;;;;;;;34.63;18.42;;;;;;;3.76;89.17;99644.63;4413345;79;21039;-92
2022/01/14 14:08:08;;;;;;;31.03;15.47;;;;;;;3.77;89.09;99636.73;4408356;79;21125;-91
2022/01/14 14:20:42;;;;;;;36.42;19.10;;;;;;;3.70;89.15;99640.44;4409407;79;21069;-92
2022/01/14 14:26:48;;;;;;;38.20;19.92;;;;;;;3.67;89.21;99641.07;4410284;78;21548;-91
2022/01/14 14:32:50;;;;;;;45.30;25.13;;;;;;;3.65;89.37;99631.13;4410712;79;21126;-92
2022/01/14 14:38:52;;;;;;;50.73;26.12;;;;;;;3.61;89.51;99636.37;4408878;79;21615;-92
2022/01/14 14:44:54;;;;;;;34.55;19.30;;;;;;;3.54;89.77;99612.22;4410209;79;21013;-91
2022/01/14 14:50:55;;;;;;;43.78;24.02;;;;;;;3.54;90.17;99625.76;4407623;79;21014;-92
2022/01/14 14:56:58;;;;;;;39.78;20.48;;;;;;;3.51;90.31;99622.33;4390357;79;21038;-91
2022/01/14 15:03:02;;;;;;;37.95;21.35;;;;;;;3.48;90.38;99624.31;4416448;79;21707;-93
2022/01/14 15:09:05;;;;;;;39.78;20.65;;;;;;;3.51;90.52;99638.57;4417570;79;21141;-93
2022/01/14 15:15:12;;;;;;;33.65;17.37;;;;;;;3.50;90.51;99635.59;4417202;79;21089;-93
2022/01/14 15:21:13;;;;;;;29.53;15.80;;;;;;;3.50;90.71;99646.42;4388269;79;21950;-92
2022/01/14 15:27:18;;;;;;;24.85;14.85;;;;;;;3.52;90.84;99636.91;4391104;79;21721;-91
2022/01/14 15:33:24;;;;;;;33.55;18.02;;;;;;;3.50;91.05;99649.94;4415371;79;21083;-92
2022/01/14 15:39:26;;;;;;;29.45;17.15;;;;;;;3.46;91.37;99659.00;4403303;79;21047;-91
2022/01/14 15:45:35;;;;;;;37.93;21.52;;;;;;;3.38;91.63;99648.39;4418523;79;21608;-92
2022/01/14 15:51:39;;;;;;;33.27;18.90;;;;;;;3.35;92.17;99649.56;4415296;79;21049;-92
2022/01/14 15:57:40;;;;;;;35.85;21.17;;;;;;;3.28;92.41;99670.30;4419785;79;21200;-91
2022/01/14 16:03:44;;;;;;;42.85;22.70;;;;;;;3.27;92.69;99666.55;4408037;79;21128;-91
2022/01/14 16:09:59;;;;;;;33.85;20.75;;;;;;;3.27;92.90;99662.48;4381782;79;21073;-92
2022/01/14 16:16:03;;;;;;;33.05;19.98;;;;;;;3.27;92.94;99666.00;4382101;79;21679;-92
2022/01/14 16:22:05;;;;;;;34.88;20.32;;;;;;;3.27;93.30;99667.36;4398360;80;21100;-91
2022/01/14 16:28:10;;;;;;;42.78;22.73;;;;;;;3.27;93.44;99666.55;4404571;80;21033;-91
2022/01/14 16:34:10;;;;;;;44.05;23.62;;;;;;;3.24;93.61;99673.39;4380897;79;21652;-92
2022/01/14 16:40:16;;;;;;;39.35;20.35;;;;;;;3.23;93.88;99677.19;4406374;79;21643;-93
2022/01/14 16:46:21;;;;;;;35.75;19.10;;;;;;;3.21;94.18;99680.78;4381843;80;21065;-91
2022/01/14 16:52:24;;;;;;;40.78;20.70;;;;;;;3.22;94.44;99686.42;4378801;79;21058;-91
2022/01/14 16:58:27;;;;;;;41.35;22.65;;;;;;;3.28;94.81;99696.55;4412804;79;21577;-93
2022/01/14 17:04:28;;;;;;;46.18;26.05;;;;;;;3.28;94.62;99689.23;4431201;79;21038;-92
2022/01/14 17:10:30;;;;;;;46.10;24.30;;;;;;;3.26;94.59;99690.09;4425478;79;22476;-92
2022/01/14 17:16:34;;;;;;;44.03;23.27;;;;;;;3.26;94.87;99706.91;4424357;79;21069;-91
2022/01/14 17:22:36;;;;;;;40.43;21.82;;;;;;;3.24;95.15;99713.40;4258189;82;21009;-92
2022/01/14 17:28:40;;;;;;;36.30;17.70;;;;;;;3.24;95.24;99720.16;4317565;79;21070;-94
2022/01/14 17:34:43;;;;;;;33.10;20.25;;;;;;;3.26;95.65;99723.14;4246682;82;21065;-90
2022/01/14 17:40:45;;;;;;;32.30;16.25;;;;;;;3.25;95.72;99706.09;4337019;81;21058;-91
2022/01/14 17:46:49;;;;;;;30.35;17.40;;;;;;;3.26;95.65;99710.96;4324929;81;21039;-92
2022/01/14 17:52:51;;;;;;;33.73;16.77;;;;;;;3.27;95.67;99707.95;4298523;81;21051;-91
2022/01/14 17:58:52;;;;;;;28.65;16.75;;;;;;;3.34;96.67;99716.95;4315370;81;21121;-92
2022/01/14 18:04:53;;;;;;;38.10;17.90;;;;;;;3.30;96.01;99711.37;4252453;82;21113;-92
2022/01/14 18:10:55;;;;;;;29.45;15.83;;;;;;;3.29;96.39;99706.28;4250412;82;21053;-93
2022/01/14 18:16:56;;;;;;;30.72;17.10;;;;;;;3.28;96.54;99710.88;4254852;82;21097;-92
2022/01/14 18:22:58;;;;;;;32.25;17.30;;;;;;;3.27;96.62;99714.71;4246087;82;22179;-92
2022/01/14 18:29:00;;;;;;;31.20;18.00;;;;;;;3.27;96.72;99728.78;4257010;80;21394;-91
2022/01/14 18:35:04;;;;;;;41.23;19.70;;;;;;;3.29;96.75;99730.63;4270239;82;21101;-92
2022/01/14 18:41:07;;;;;;;38.42;19.62;;;;;;;3.29;96.72;99734.12;4276722;82;21038;-92
2022/01/14 18:47:09;;;;;;;37.50;19.55;;;;;;;3.29;96.80;99727.93;4269014;82;21014;-92
2022/01/14 18:53:10;;;;;;;47.83;23.90;;;;;;;3.28;96.89;99727.12;4279174;82;21026;-91
2022/01/14 18:59:13;;;;;;;48.83;24.07;;;;;;;3.25;96.97;99738.56;4288515;82;21040;-93
2022/01/14 19:05:15;;;;;;;78.90;29.10;;;;;;;3.21;97.22;99750.55;4270533;82;21046;-91
2022/01/14 19:11:18;;;;;;;50.05;23.65;;;;;;;3.19;97.45;99746.56;4274964;80;21027;-91
2022/01/14 19:17:20;;;;;;;38.30;19.23;;;;;;;3.16;97.65;99764.20;4273325;82;21562;-92
2022/01/14 19:23:21;;;;;;;43.35;22.45;;;;;;;3.13;97.80;99776.98;4271418;82;21620;-91
2022/01/14 19:29:26;;;;;;;49.27;23.57;;;;;;;3.12;98.08;99778.10;4248636;82;21015;-91
2022/01/14 19:35:26;;;;;;;38.15;20.70;;;;;;;3.08;98.13;99777.67;4326777;81;21542;-92
2022/01/14 19:41:28;;;;;;;41.80;21.33;;;;;;;3.03;98.21;99781.30;4276980;82;21018;-89
2022/01/14 19:47:31;;;;;;;38.58;20.55;;;;;;;2.96;98.03;99786.89;4251208;82;21059;-90
2022/01/14 19:53:32;;;;;;;37.60;19.23;;;;;;;2.95;98.48;99791.50;4249988;82;20995;-90
2022/01/14 19:59:34;;;;;;;29.90;16.05;;;;;;;2.95;98.48;99815.84;4227857;82;21081;-91
2022/01/14 20:05:36;;;;;;;27.73;15.95;;;;;;;2.96;98.59;99818.78;4301072;81;21058;-91
2022/01/14 20:11:37;;;;;;;28.90;16.23;;;;;;;2.94;98.44;99825.61;4279466;82;21046;-92
2022/01/14 20:17:40;;;;;;;38.70;19.40;;;;;;;2.86;98.50;99824.43;4276466;82;21685;-90
2022/01/14 20:23:42;;;;;;;44.45;21.73;;;;;;;2.85;98.74;99817.97;4279141;82;21120;-90
2022/01/14 20:29:43;;;;;;;44.03;24.00;;;;;;;2.86;98.75;99828.48;4278658;82;21107;-92
2022/01/14 20:35:45;;;;;;;43.85;21.37;;;;;;;2.87;98.78;99840.89;4279439;82;21119;-91
2022/01/14 20:41:48;;;;;;;34.75;18.07;;;;;;;2.88;98.70;99848.47;4282429;82;21501;-90
2022/01/14 20:47:59;;;;;;;35.33;19.35;;;;;;;2.90;98.81;99851.10;4330147;80;21026;-90
2022/01/14 20:54:03;;;;;;;41.15;19.92;;;;;;;2.92;98.92;99856.20;4282818;82;22136;-90
2022/01/14 21:00:10;;;;;;;33.92;16.90;;;;;;;2.93;98.82;99849.14;4249700;82;21086;-90
2022/01/14 21:06:14;;;;;;;31.15;17.23;;;;;;;2.86;98.66;99847.42;4276041;82;21097;-91
2022/01/14 21:12:18;;;;;;;33.45;18.57;;;;;;;2.78;98.60;99854.89;4271558;81;21117;-91
2022/01/14 21:18:21;;;;;;;36.70;18.73;;;;;;;2.72;98.60;99864.76;4267973;82;21126;-91
2022/01/14 21:24:22;;;;;;;31.33;16.87;;;;;;;2.69;98.68;99870.77;4253543;82;21418;-90
2022/01/14 21:30:24;;;;;;;37.28;18.57;;;;;;;2.63;98.88;99865.22;4272836;82;21589;-91
2022/01/14 21:36:25;;;;;;;69.10;34.23;;;;;;;2.54;98.53;99875.11;4272903;82;21054;-89
2022/01/14 21:42:28;;;;;;;37.15;16.50;;;;;;;2.46;98.53;99882.60;4276493;82;21093;-91
2022/01/14 21:48:30;;;;;;;35.33;16.45;;;;;;;2.45;98.61;99897.19;4274071;82;21034;-92
2022/01/14 21:54:31;;;;;;;32.88;17.82;;;;;;;2.47;98.55;99897.70;4274140;82;21054;-90
2022/01/14 22:00:33;;;;;;;28.27;14.50;;;;;;;2.45;98.50;99885.84;4269811;82;21472;-91
2022/01/14 22:06:35;;;;;;;31.90;16.87;;;;;;;2.47;98.65;99892.30;4255965;83;21084;-90
2022/01/14 22:12:40;;;;;;;32.25;16.02;;;;;;;2.48;98.47;99885.24;4264457;83;21496;-91
2022/01/14 22:18:40;;;;;;;28.75;15.32;;;;;;;2.46;98.39;99886.66;4255469;83;21064;-92
2022/01/14 22:24:41;;;;;;;31.15;15.95;;;;;;;2.46;98.45;99900.16;4259018;83;20992;-92
2022/01/14 22:30:46;;;;;;;28.10;15.38;;;;;;;2.47;98.45;99909.86;4256972;83;21107;-90
2022/01/14 22:36:47;;;;;;;31.42;14.87;;;;;;;2.43;98.38;99904.25;4258215;83;21028;-90
2022/01/14 22:42:48;;;;;;;25.68;13.30;;;;;;;2.42;98.26;99909.95;4257407;82;21096;-90
2022/01/14 22:48:51;;;;;;;26.77;12.82;;;;;;;2.39;98.10;99899.75;4256661;82;21068;-91
2022/01/14 22:54:53;;;;;;;27.37;14.05;;;;;;;2.36;97.97;99899.00;4253779;83;21741;-90
2022/01/14 23:00:54;;;;;;;29.18;13.53;;;;;;;2.29;97.84;99896.69;4257418;82;20989;-91
2022/01/14 23:06:56;;;;;;;29.60;14.00;;;;;;;2.24;97.86;99908.15;4256520;82;21564;-91
2022/01/14 23:12:57;;;;;;;27.22;12.20;;;;;;;2.21;97.83;99907.39;4256525;83;21083;-92
2022/01/14 23:18:59;;;;;;;33.95;14.05;;;;;;;2.21;97.81;99914.93;4257044;83;21076;-91
2022/01/14 23:25:01;;;;;;;32.35;14.68;;;;;;;2.21;97.66;99923.61;4258549;82;20993;-91
2022/01/14 23:31:10;;;;;;;29.27;12.40;;;;;;;2.19;97.59;99928.49;4257847;83;21042;-91
2022/01/14 23:37:13;;;;;;;33.08;13.45;;;;;;;2.13;97.47;99926.41;4253095;83;21055;-90
2022/01/14 23:43:24;;;;;;;28.77;13.75;;;;;;;2.07;97.30;99924.13;4255691;82;21068;-90
2022/01/14 23:49:29;;;;;;;32.17;13.05;;;;;;;1.94;96.93;99918.94;4254180;82;21673;-91
2022/01/14 23:55:30;;;;;;;32.42;12.65;;;;;;;1.76;96.68;99914.91;4241350;83;21120;-92
